Time;durP1;ratioP1;P1;durP2;ratioP2;P2;SDS_P1;SDS_P2;PMS_P1;PMS_P2;Temp;Humidity;BMP_temperature;BMP_pressure;BME280_temperature;BME280_humidity;BME280_pressure;Samples;Min_cycle;Max_cycle;Signal;HPM_P1;HPM_P2
2023/11/01 00:02:06;;;;;;;20.98;10.93;;;;;;;20.01;49.03;98334.94;4958606;28;20129;-72
2023/11/01 00:04:31;;;;;;;28.05;11.35;;;;;;;20.06;49.18;98345.00;4958411;28;20047;-72
2023/11/01 00:06:58;;;;;;;19.02;10.90;;;;;;;20.05;49.49;98335.38;4957878;28;20038;-72
2023/11/01 00:09:24;;;;;;;20.52;10.93;;;;;;;20.06;49.38;98335.19;4974090;28;20042;-72
2023/11/01 00:11:50;;;;;;;18.35;11.30;;;;;;;20.06;49.32;98329.91;4958231;28;20035;-72
2023/11/01 00:14:15;;;;;;;16.80;10.15;;;;;;;20.03;49.34;98345.38;4942472;28;20031;-72
2023/11/01 00:16:41;;;;;;;19.90;11.10;;;;;;;20.11;49.37;98352.38;4958661;28;20379;-72
2023/11/01 00:19:07;;;;;;;17.45;9.85;;;;;;;20.11;49.21;98347.88;4957918;28;20039;-72
2023/11/01 00:21:33;;;;;;;20.27;11.10;;;;;;;20.12;49.16;98332.84;4942018;28;20093;-72
2023/11/01 00:23:58;;;;;;;20.40;11.32;;;;;;;20.14;49.09;98322.84;4957180;28;20034;-72
2023/11/01 00:26:24;;;;;;;16.92;10.18;;;;;;;20.13;48.89;98318.56;4956487;28;20039;-72
2023/11/01 00:28:49;;;;;;;19.60;10.27;;;;;;;20.10;49.16;98317.13;4956596;28;20038;-72
2023/11/01 00:31:15;;;;;;;19.13;9.93;;;;;;;20.02;49.20;98315.41;4972970;28;20026;-72
2023/11/01 00:33:40;;;;;;;17.83;10.23;;;;;;;20.05;49.29;98315.03;4973088;28;20419;-72
2023/11/01 00:36:06;;;;;;;19.15;10.05;;;;;;;20.05;49.32;98323.00;4940531;28;20058;-72
2023/11/01 00:38:35;;;;;;;17.25;10.13;;;;;;;20.03;49.38;98314.38;4973984;28;20455;-73
2023/11/01 00:41:04;;;;;;;17.95;10.45;;;;;;;20.05;49.43;98325.63;4973124;28;20122;-72
2023/11/01 00:43:33;;;;;;;17.25;10.18;;;;;;;20.03;49.38;98309.09;4956978;28;20109;-73
2023/11/01 00:45:58;;;;;;;15.57;9.95;;;;;;;20.05;49.43;98311.53;4972842;28;20414;-73
2023/11/01 00:48:24;;;;;;;16.90;9.75;;;;;;;20.08;49.24;98327.06;4956689;28;20053;-72
2023/11/01 00:50:50;;;;;;;17.50;10.35;;;;;;;20.03;49.31;98324.16;4956311;28;20034;-73
2023/11/01 00:53:15;;;;;;;21.40;9.70;;;;;;;20.01;49.28;98321.72;4972493;28;20042;-72
2023/11/01 00:55:41;;;;;;;16.73;9.60;;;;;;;20.00;49.31;98320.09;4956005;28;20077;-72
2023/11/01 00:58:06;;;;;;;16.30;9.30;;;;;;;20.00;49.44;98317.44;4955624;28;20039;-72
2023/11/01 01:00:31;;;;;;;15.75;9.85;;;;;;;20.01;49.45;98320.91;4971882;28;20078;-72
2023/11/01 01:02:57;;;;;;;18.10;9.95;;;;;;;19.95;49.49;98314.50;4972124;28;20050;-72
2023/11/01 01:05:23;;;;;;;17.15;9.70;;;;;;;19.97;49.58;98325.75;4957343;28;20042;-72
2023/11/01 01:07:49;;;;;;;16.08;9.07;;;;;;;19.94;49.64;98318.19;4974106;28;20121;-72
2023/11/01 01:10:15;;;;;;;17.98;9.48;;;;;;;19.93;49.67;98303.28;4941367;28;20081;-72
2023/11/01 01:12:40;;;;;;;16.48;9.85;;;;;;;19.91;49.64;98310.63;4956382;28;20517;-72
2023/11/01 01:15:06;;;;;;;18.00;10.10;;;;;;;19.94;49.65;98331.44;4957528;28;20038;-71
2023/11/01 01:17:32;;;;;;;17.42;9.98;;;;;;;19.92;49.67;98328.13;4957264;28;20398;-72
2023/11/01 01:19:57;;;;;;;14.32;8.95;;;;;;;19.92;49.87;98332.63;4972575;28;20138;-72
2023/11/01 01:22:23;;;;;;;21.40;9.50;;;;;;;19.89;49.81;98331.16;4974528;28;20045;-72
2023/11/01 01:24:48;;;;;;;14.77;9.20;;;;;;;19.90;49.87;98327.50;4974230;28;20136;-72
2023/11/01 01:27:14;;;;;;;15.75;9.32;;;;;;;19.90;49.68;98330.16;4974058;28;20117;-72
2023/11/01 01:29:39;;;;;;;17.52;9.25;;;;;;;19.88;49.83;98318.94;4940917;28;20023;-72
2023/11/01 01:32:05;;;;;;;17.35;9.63;;;;;;;19.86;49.93;98324.41;4972439;28;20073;-72
2023/11/01 01:34:30;;;;;;;14.30;9.23;;;;;;;19.85;49.87;98311.34;4973873;28;20054;-74
2023/11/01 01:36:56;;;;;;;16.80;9.73;;;;;;;19.84;50.08;98302.56;4956795;28;20038;-72
2023/11/01 01:39:21;;;;;;;15.68;9.27;;;;;;;19.85;49.89;98306.88;4972695;28;20034;-72
2023/11/01 01:41:47;;;;;;;17.70;9.68;;;;;;;19.86;50.02;98312.97;4972725;28;20046;-72
2023/11/01 01:44:13;;;;;;;20.77;9.45;;;;;;;19.84;49.96;98315.81;4956740;28;20057;-72
2023/11/01 01:46:39;;;;;;;18.63;9.95;;;;;;;19.82;50.07;98323.13;4940605;28;20588;-73
2023/11/01 01:49:05;;;;;;;14.77;8.88;;;;;;;19.79;50.07;98320.84;4956465;28;20070;-76
2023/11/01 01:51:30;;;;;;;19.63;9.25;;;;;;;19.79;50.09;98317.41;4956544;28;20062;-72
2023/11/01 01:53:56;;;;;;;16.52;9.57;;;;;;;19.79;50.19;98320.03;4974023;28;20039;-71
2023/11/01 01:56:21;;;;;;;14.63;8.70;;;;;;;19.79;50.26;98322.69;4940469;28;20479;-72
2023/11/01 01:58:47;;;;;;;14.75;9.25;;;;;;;19.79;50.39;98320.84;4972453;28;20101;-71
2023/11/01 02:01:13;;;;;;;20.83;9.32;;;;;;;19.82;50.02;98319.69;4972499;28;20022;-72
2023/11/01 02:03:39;;;;;;;14.68;9.18;;;;;;;19.78;49.95;98307.81;4972442;28;20035;-72
2023/11/01 02:06:05;;;;;;;19.85;9.23;;;;;;;19.75;49.98;98308.97;4972550;28;20045;-72
2023/11/01 02:08:31;;;;;;;19.08;9.63;;;;;;;19.76;50.05;98317.75;4956139;28;20391;-72
2023/11/01 02:10:56;;;;;;;15.57;9.18;;;;;;;19.73;50.15;98318.09;4972407;28;20037;-71
2023/11/01 02:13:22;;;;;;;15.75;9.40;;;;;;;19.70;50.31;98314.00;4972250;28;20035;-71
2023/11/01 02:15:48;;;;;;;15.35;9.63;;;;;;;19.69;50.27;98315.03;4956272;28;20026;-71
2023/11/01 02:18:13;;;;;;;18.55;9.25;;;;;;;19.73;50.24;98324.22;4956222;28;20162;-72
2023/11/01 02:20:41;;;;;;;14.52;9.43;;;;;;;19.73;50.17;98318.09;4939969;28;20039;-72
2023/11/01 02:23:08;;;;;;;15.48;9.90;;;;;;;19.69;50.06;98328.25;4956177;28;20109;-71
2023/11/01 02:25:34;;;;;;;23.50;10.18;;;;;;;19.67;49.89;98346.13;4939880;28;20027;-71
2023/11/01 02:27:59;;;;;;;14.23;9.02;;;;;;;19.70;50.09;98361.66;4955901;28;20037;-71
2023/11/01 02:30:25;;;;;;;18.02;10.35;;;;;;;19.67;50.18;98372.63;4972166;28;20030;-71
2023/11/01 02:32:51;;;;;;;22.23;10.23;;;;;;;19.66;50.20;98358.56;4955676;28;20097;-72
2023/11/01 02:35:17;;;;;;;17.13;9.68;;;;;;;19.68;50.00;98347.78;4956138;28;20038;-71
2023/11/01 02:37:42;;;;;;;22.08;10.07;;;;;;;19.64;49.95;98343.84;4955946;28;20035;-71
2023/11/01 02:40:09;;;;;;;21.00;10.07;;;;;;;19.67;50.12;98360.22;4956187;28;20039;-71
2023/11/01 02:42:41;;;;;;;18.05;10.70;;;;;;;19.63;49.85;98350.19;4956256;28;20041;-72
2023/11/01 02:45:10;;;;;;;17.35;10.02;;;;;;;19.59;49.88;98352.34;4940497;28;20133;-71
2023/11/01 02:47:39;;;;;;;20.48;10.20;;;;;;;19.63;49.87;98363.41;4971872;28;20043;-72
2023/11/01 02:50:05;;;;;;;17.58;9.98;;;;;;;19.61;49.95;98368.06;4956104;28;20039;-72
2023/11/01 02:52:32;;;;;;;13.93;9.90;;;;;;;19.58;49.79;98360.50;4939956;28;20118;-71
2023/11/01 02:54:57;;;;;;;16.77;9.30;;;;;;;19.57;50.01;98364.16;4956092;28;20041;-72
2023/11/01 02:57:23;;;;;;;14.65;9.80;;;;;;;19.60;49.82;98377.84;4955459;28;20043;-72
2023/11/01 02:59:48;;;;;;;18.42;9.95;;;;;;;19.57;50.14;98378.19;4971474;28;20035;-72
2023/11/01 03:02:14;;;;;;;19.45;10.43;;;;;;;19.55;49.93;98382.88;4955792;28;20035;-72
2023/11/01 03:04:39;;;;;;;19.13;10.27;;;;;;;19.55;49.87;98384.69;4939836;28;20035;-72
2023/11/01 03:07:05;;;;;;;14.27;9.38;;;;;;;19.49;50.07;98379.09;4955409;28;20482;-71
2023/11/01 03:09:31;;;;;;;14.82;9.60;;;;;;;19.45;49.94;98395.53;4955868;28;20038;-70
2023/11/01 03:11:56;;;;;;;17.80;9.93;;;;;;;19.38;50.10;98395.44;4971792;28;20023;-70
2023/11/01 03:14:22;;;;;;;18.48;9.82;;;;;;;19.37;50.41;98403.56;4955687;28;20035;-70
2023/11/01 03:16:47;;;;;;;17.83;10.00;;;;;;;19.33;50.31;98405.78;4955610;28;20038;-70
2023/11/01 03:19:13;;;;;;;16.77;9.63;;;;;;;19.28;50.16;98406.31;4972260;28;20501;-70
2023/11/01 03:21:41;;;;;;;17.23;9.50;;;;;;;19.25;50.31;98408.50;4959233;28;20035;-70
2023/11/01 03:24:06;;;;;;;15.18;9.68;;;;;;;19.21;50.58;98413.31;4959088;28;20031;-70
2023/11/01 03:26:32;;;;;;;17.58;10.38;;;;;;;19.20;50.60;98395.81;4959035;28;20045;-71
2023/11/01 03:28:57;;;;;;;16.73;9.80;;;;;;;19.13;50.78;98397.53;4976184;28;20035;-72
2023/11/01 03:31:22;;;;;;;18.27;9.65;;;;;;;19.11;50.69;98395.06;4976106;28;20112;-71
2023/11/01 03:33:48;;;;;;;18.63;9.77;;;;;;;19.10;50.81;98393.44;4975938;28;20069;-71
2023/11/01 03:36:14;;;;;;;16.70;9.55;;;;;;;19.11;50.85;98396.88;4958377;28;20051;-71
2023/11/01 03:38:39;;;;;;;18.33;9.95;;;;;;;19.08;50.65;98389.31;4957513;28;20485;-72
2023/11/01 03:41:05;;;;;;;13.77;9.18;;;;;;;19.06;50.62;98397.44;4958021;28;20556;-70
2023/11/01 03:43:33;;;;;;;15.48;9.15;;;;;;;19.04;50.70;98402.09;4941945;28;20030;-71
2023/11/01 03:45:59;;;;;;;14.68;9.27;;;;;;;19.03;50.66;98399.63;4938892;28;20053;-71
2023/11/01 03:48:25;;;;;;;17.88;9.52;;;;;;;19.02;50.73;98398.78;4965150;28;20030;-71
2023/11/01 03:50:51;;;;;;;17.98;9.52;;;;;;;19.01;50.68;98391.88;4974725;28;20041;-71
2023/11/01 03:53:16;;;;;;;16.55;9.05;;;;;;;19.01;50.59;98388.38;4975676;28;20027;-70
2023/11/01 03:55:42;;;;;;;18.48;9.60;;;;;;;19.05;50.65;98387.03;4974516;28;20069;-70
2023/11/01 03:58:07;;;;;;;16.90;9.88;;;;;;;19.07;50.69;98387.66;4958181;28;20093;-70
2023/11/01 04:00:33;;;;;;;15.27;8.98;;;;;;;19.07;50.54;98393.78;4958652;28;20044;-71
2023/11/01 04:02:58;;;;;;;15.27;9.30;;;;;;;19.10;50.39;98401.38;4974248;28;20031;-71
2023/11/01 04:05:24;;;;;;;17.40;9.05;;;;;;;19.07;50.61;98396.44;4957531;28;20043;-71
2023/11/01 04:07:49;;;;;;;17.27;10.45;;;;;;;19.08;50.57;98402.53;4974204;28;20030;-71
2023/11/01 04:10:15;;;;;;;13.40;8.68;;;;;;;19.14;50.53;98415.06;4958746;28;20156;-71
2023/11/01 04:12:40;;;;;;;18.50;9.57;;;;;;;19.13;50.32;98416.03;4974343;28;20089;-72
2023/11/01 04:15:10;;;;;;;18.05;9.32;;;;;;;19.12;50.43;98423.16;4958154;28;20484;-71
2023/11/01 04:17:35;;;;;;;17.65;9.18;;;;;;;19.08;50.48;98421.06;4958214;28;20122;-71
2023/11/01 04:20:03;;;;;;;17.80;9.07;;;;;;;19.11;50.48;98434.75;4958145;28;20098;-71
2023/11/01 04:22:28;;;;;;;14.40;8.88;;;;;;;19.10;50.52;98443.69;4974268;28;20038;-71
2023/11/01 04:24:54;;;;;;;18.65;8.90;;;;;;;19.11;50.54;98437.38;4974128;28;20031;-71
2023/11/01 04:27:20;;;;;;;15.20;9.00;;;;;;;19.08;50.80;98440.38;4957931;28;20031;-71
2023/11/01 04:29:46;;;;;;;17.85;9.13;;;;;;;19.13;50.65;98437.22;4957462;28;20410;-72
2023/11/01 04:32:11;;;;;;;19.05;8.98;;;;;;;19.13;50.54;98434.56;4972981;28;20034;-72
2023/11/01 04:34:37;;;;;;;14.48;8.80;;;;;;;19.14;50.57;98439.69;4957704;28;20181;-71
2023/11/01 04:37:02;;;;;;;16.63;8.75;;;;;;;19.16;50.50;98439.50;4938651;29;20034;-72
2023/11/01 04:39:28;;;;;;;16.48;8.82;;;;;;;19.14;50.54;98425.63;4938535;29;20074;-72
2023/11/01 04:41:53;;;;;;;15.07;8.07;;;;;;;19.17;50.62;98444.59;4953978;29;20038;-71
2023/11/01 04:44:19;;;;;;;14.43;8.52;;;;;;;19.22;50.61;98443.25;4921858;29;20047;-72
2023/11/01 04:46:44;;;;;;;16.58;8.18;;;;;;;19.22;50.46;98438.78;4945178;29;20046;-73
2023/11/01 04:49:10;;;;;;;15.10;8.20;;;;;;;19.20;50.33;98438.16;4954806;29;20065;-73
2023/11/01 04:51:35;;;;;;;15.90;7.50;;;;;;;19.23;50.37;98444.88;4938240;29;20479;-70
2023/11/01 04:54:06;;;;;;;13.75;7.45;;;;;;;19.22;50.06;98449.38;4954311;29;20035;-71
2023/11/01 04:56:32;;;;;;;15.80;7.60;;;;;;;19.22;50.33;98452.00;4938917;29;20035;-74
2023/11/01 04:58:58;;;;;;;13.82;7.80;;;;;;;19.26;50.19;98461.25;4954254;28;20032;-74
2023/11/01 05:01:23;;;;;;;14.68;7.88;;;;;;;19.23;50.29;98455.47;4938053;29;20086;-76
2023/11/01 05:03:49;;;;;;;16.30;7.68;;;;;;;19.28;49.75;98472.47;4937882;29;20101;-71
2023/11/01 05:06:14;;;;;;;20.77;7.53;;;;;;;19.34;50.63;98474.41;4956598;28;20030;-73
2023/11/01 05:08:40;;;;;;;18.48;7.50;;;;;;;19.27;50.00;98468.16;4957124;28;20046;-72
2023/11/01 05:11:06;;;;;;;14.07;7.05;;;;;;;19.26;50.05;98477.13;4940435;28;20070;-70
2023/11/01 05:13:31;;;;;;;16.65;7.28;;;;;;;19.34;51.16;98476.22;4940860;28;20113;-71
2023/11/01 05:15:57;;;;;;;23.83;7.13;;;;;;;19.43;53.03;98487.53;4974602;28;20046;-74
2023/11/01 05:18:24;;;;;;;18.05;7.43;;;;;;;19.45;51.89;98483.72;4940910;28;20464;-71
2023/11/01 05:20:49;;;;;;;20.65;7.85;;;;;;;19.66;54.27;98490.16;4976402;28;20473;-67
2023/11/01 05:23:15;;;;;;;25.35;6.53;;;;;;;19.66;50.77;98498.91;4961801;28;20041;-70
2023/11/01 05:25:40;;;;;;;12.45;6.22;;;;;;;19.59;50.10;98502.44;4936604;28;20050;-68
2023/11/01 05:28:06;;;;;;;14.70;6.80;;;;;;;19.50;50.34;98513.13;4955474;28;20034;-69
2023/11/01 05:30:31;;;;;;;14.05;6.63;;;;;;;19.47;50.92;98505.53;4939837;28;20195;-70
2023/11/01 05:32:57;;;;;;;11.48;6.15;;;;;;;19.44;50.67;98505.91;4972709;28;20038;-68
2023/11/01 05:35:22;;;;;;;12.80;6.30;;;;;;;19.41;50.61;98511.56;4972515;28;20079;-69
2023/11/01 05:37:48;;;;;;;12.07;6.45;;;;;;;19.41;50.52;98513.38;4972771;28;20042;-68
2023/11/01 05:40:14;;;;;;;12.35;6.18;;;;;;;19.38;50.32;98516.38;4956580;28;20463;-70
2023/11/01 05:42:41;;;;;;;11.35;5.80;;;;;;;19.34;49.83;98511.44;4940286;28;20474;-69
2023/11/01 05:45:06;;;;;;;14.10;6.00;;;;;;;19.34;49.75;98521.22;4956222;28;20516;-68
2023/11/01 05:47:32;;;;;;;16.05;6.10;;;;;;;19.33;50.08;98516.91;4940981;28;20041;-69
2023/11/01 05:49:58;;;;;;;11.93;6.10;;;;;;;19.38;49.74;98525.13;4940441;28;20544;-68
2023/11/01 05:52:23;;;;;;;15.63;6.40;;;;;;;19.42;49.80;98523.78;4955957;28;20101;-68
2023/11/01 05:54:49;;;;;;;15.43;6.22;;;;;;;19.51;49.85;98528.00;4956457;28;20058;-70
2023/11/01 05:57:14;;;;;;;13.35;5.75;;;;;;;19.63;49.58;98525.75;4955915;28;20034;-67
2023/11/01 05:59:40;;;;;;;19.92;5.30;;;;;;;19.73;49.34;98528.13;4941000;28;20054;-68
2023/11/01 06:02:06;;;;;;;14.32;6.07;;;;;;;19.83;48.94;98533.19;4954443;28;20062;-69
2023/11/01 06:04:32;;;;;;;18.10;6.30;;;;;;;19.88;49.02;98525.53;4938877;28;20027;-67
2023/11/01 06:06:58;;;;;;;14.90;5.78;;;;;;;20.11;48.56;98533.38;4956211;28;20027;-68
2023/11/01 06:09:23;;;;;;;21.38;5.65;;;;;;;20.22;48.62;98530.25;4971884;28;20046;-68
2023/11/01 06:11:49;;;;;;;15.93;5.55;;;;;;;20.61;47.78;98534.41;4955785;28;20047;-69
2023/11/01 06:14:14;;;;;;;19.50;6.55;;;;;;;21.53;45.46;98532.06;4940092;28;20410;-67
2023/11/01 06:16:40;;;;;;;22.83;6.20;;;;;;;22.18;44.24;98534.50;4956279;28;20038;-68
2023/11/01 06:19:05;;;;;;;17.77;5.95;;;;;;;23.18;42.99;98534.84;4972182;28;20518;-67
2023/11/01 06:21:31;;;;;;;14.27;5.15;;;;;;;23.17;42.99;98527.09;4971806;28;20046;-68
2023/11/01 06:23:57;;;;;;;18.35;6.18;;;;;;;22.97;42.77;98522.53;4956241;28;20034;-67
2023/11/01 06:26:23;;;;;;;23.90;6.35;;;;;;;23.29;42.21;98510.31;4956158;28;20030;-67
2023/11/01 06:28:48;;;;;;;26.85;6.85;;;;;;;23.26;41.40;98512.53;4939848;28;20489;-68
2023/11/01 06:31:16;;;;;;;35.08;6.80;;;;;;;24.45;38.93;98524.03;4971866;28;20493;-69
2023/11/01 06:33:41;;;;;;;38.13;7.20;;;;;;;24.26;39.27;98512.41;4940356;28;20039;-68
2023/11/01 06:36:08;;;;;;;24.52;6.85;;;;;;;23.97;39.22;98513.72;4955963;28;20044;-68
2023/11/01 06:38:33;;;;;;;24.88;6.38;;;;;;;23.78;39.70;98508.22;4940265;28;20125;-68
2023/11/01 06:40:59;;;;;;;29.70;7.07;;;;;;;23.63;40.10;98520.94;4955843;28;20157;-68
2023/11/01 06:43:24;;;;;;;28.75;7.07;;;;;;;23.35;41.34;98521.97;4972201;28;20043;-68
2023/11/01 06:45:50;;;;;;;25.60;6.93;;;;;;;23.20;41.32;98527.50;4955747;28;20553;-67
2023/11/01 06:48:15;;;;;;;31.95;6.68;;;;;;;23.00;42.08;98519.47;4955809;28;20030;-69
2023/11/01 06:50:41;;;;;;;24.98;6.35;;;;;;;22.89;43.08;98520.06;4971882;28;20493;-68
2023/11/01 06:53:06;;;;;;;30.52;7.53;;;;;;;22.82;42.67;98520.06;4971971;28;20035;-68
2023/11/01 06:55:32;;;;;;;21.52;6.70;;;;;;;22.72;43.04;98523.09;4973877;28;20031;-68
2023/11/01 06:57:57;;;;;;;19.98;7.13;;;;;;;22.67;42.32;98535.34;4960113;28;20034;-69
2023/11/01 07:00:26;;;;;;;26.58;7.10;;;;;;;22.59;42.97;98528.38;4975508;28;20066;-68
2023/11/01 07:02:51;;;;;;;;;;;;;;;22.58;42.63;98534.69;4960152;28;20031;-68
2023/11/01 07:05:16;;;;;;;22.83;7.05;;;;;;;22.54;43.50;98533.47;4975521;28;19917;-68
2023/11/01 07:07:42;;;;;;;23.05;7.05;;;;;;;22.49;43.21;98534.06;4943509;28;20030;-68
2023/11/01 07:10:08;;;;;;;23.15;7.25;;;;;;;22.49;43.39;98546.56;4959132;28;20057;-69
2023/11/01 07:12:34;;;;;;;17.45;7.10;;;;;;;22.48;43.59;98551.03;4976632;28;20050;-69
2023/11/01 07:15:00;;;;;;;23.98;7.90;;;;;;;22.45;44.05;98554.09;4943231;28;20077;-69
2023/11/01 07:17:27;;;;;;;30.42;8.30;;;;;;;22.46;44.09;98554.94;4959380;28;20027;-70
2023/11/01 07:19:54;;;;;;;24.35;7.97;;;;;;;22.53;44.35;98555.78;4960127;28;20473;-70
2023/11/01 07:22:20;;;;;;;17.17;8.25;;;;;;;22.63;44.75;98550.91;4959314;28;20034;-72
2023/11/01 07:24:46;;;;;;;21.08;8.45;;;;;;;22.73;43.86;98556.66;4943190;28;20125;-69
2023/11/01 07:27:11;;;;;;;17.92;7.20;;;;;;;22.76;43.90;98561.59;4974895;28;20462;-68
2023/11/01 07:29:37;;;;;;;22.38;7.13;;;;;;;22.75;43.98;98562.59;4974883;28;20038;-68
2023/11/01 07:32:02;;;;;;;21.20;7.50;;;;;;;22.76;43.93;98561.59;4974911;28;20390;-68
2023/11/01 07:34:28;;;;;;;21.55;7.90;;;;;;;22.78;43.57;98561.38;4974814;28;20077;-68
2023/11/01 07:36:53;;;;;;;29.55;7.25;;;;;;;22.76;43.21;98553.59;4959149;28;20034;-67
2023/11/01 07:39:19;;;;;;;29.00;7.78;;;;;;;22.83;42.70;98553.59;4974794;28;20109;-69
2023/11/01 07:41:44;;;;;;;23.38;7.65;;;;;;;22.84;42.86;98559.78;4942710;28;20442;-69
2023/11/01 07:44:10;;;;;;;27.80;7.30;;;;;;;22.81;43.42;98566.31;4974539;28;20061;-68
2023/11/01 07:46:36;;;;;;;24.08;7.75;;;;;;;22.93;43.90;98558.56;4942709;28;20031;-68
2023/11/01 07:49:01;;;;;;;23.40;7.57;;;;;;;23.16;42.45;98566.22;4942596;28;20049;-68
2023/11/01 07:51:27;;;;;;;21.25;7.95;;;;;;;23.49;41.99;98557.44;4942413;28;20066;-68
2023/11/01 07:53:52;;;;;;;33.15;8.80;;;;;;;23.69;41.49;98557.44;4975787;28;20035;-69
2023/11/01 07:56:18;;;;;;;33.38;8.23;;;;;;;23.76;41.04;98554.75;4974417;28;20031;-68
2023/11/01 07:58:43;;;;;;;26.25;9.00;;;;;;;23.74;41.26;98564.81;4942519;28;20031;-68
2023/11/01 08:01:09;;;;;;;31.23;10.48;;;;;;;23.74;41.06;98567.47;4974150;28;20035;-71
2023/11/01 08:03:36;;;;;;;48.17;11.20;;;;;;;23.74;40.79;98570.94;4974697;28;20491;-69
2023/11/01 08:06:01;;;;;;;35.50;12.20;;;;;;;23.75;40.61;98569.09;4958374;28;20117;-71
2023/11/01 08:08:27;;;;;;;49.78;12.13;;;;;;;23.72;40.57;98572.16;4975430;28;20094;-68
2023/11/01 08:10:52;;;;;;;40.47;12.60;;;;;;;23.80;40.22;98586.13;4974482;28;20027;-68
2023/11/01 08:13:18;;;;;;;42.83;11.35;;;;;;;23.83;40.51;98585.72;4942823;28;20035;-68
2023/11/01 08:15:43;;;;;;;41.25;13.25;;;;;;;23.83;40.72;98590.19;4957208;28;20469;-68
2023/11/01 08:18:10;;;;;;;38.95;12.05;;;;;;;23.78;40.71;98582.84;4974371;28;20035;-68
2023/11/01 08:20:36;;;;;;;40.25;13.07;;;;;;;23.76;41.31;98581.41;4958305;28;20422;-68
2023/11/01 08:23:01;;;;;;;46.35;13.60;;;;;;;23.86;41.06;98589.00;4958220;28;20096;-68
2023/11/01 08:25:27;;;;;;;41.75;13.25;;;;;;;24.07;41.36;98591.44;4973733;28;20051;-68
2023/11/01 08:27:52;;;;;;;46.97;13.25;;;;;;;24.33;40.32;98579.06;4973514;28;20078;-68
2023/11/01 08:30:18;;;;;;;48.28;13.30;;;;;;;24.58;40.02;98589.88;4957776;28;20043;-70
2023/11/01 08:32:44;;;;;;;53.60;14.23;;;;;;;25.05;38.96;98587.81;4957840;28;20041;-69
2023/11/01 08:35:09;;;;;;;52.00;12.98;;;;;;;25.57;37.64;98574.31;4974062;28;20026;-68
2023/11/01 08:37:35;;;;;;;43.63;12.98;;;;;;;25.74;37.02;98587.13;4957351;28;20039;-70
2023/11/01 08:40:01;;;;;;;46.47;11.98;;;;;;;25.85;36.47;98581.06;4957989;28;20027;-67
2023/11/01 08:42:26;;;;;;;33.67;11.40;;;;;;;27.27;34.33;98584.56;4974177;28;20093;-72
2023/11/01 08:44:52;;;;;;;53.33;11.75;;;;;;;28.34;32.97;98596.19;4973555;28;20186;-69
2023/11/01 08:47:39;;;;;;;66.50;11.13;;;;;;;29.64;31.31;98590.28;4957640;28;20078;-68
2023/11/01 08:50:05;;;;;;;53.07;10.03;;;;;;;31.17;28.61;98592.56;4957202;28;20517;-68
2023/11/01 08:52:32;;;;;;;44.22;9.30;;;;;;;32.87;25.98;98599.84;4973644;28;20077;-67
2023/11/01 08:54:58;;;;;;;31.50;8.48;;;;;;;34.67;23.55;98597.00;4973442;28;20502;-67
2023/11/01 08:57:24;;;;;;;19.55;7.22;;;;;;;36.44;21.57;98593.38;4973628;28;20031;-67
2023/11/01 08:59:50;;;;;;;22.65;6.68;;;;;;;38.07;19.41;98582.97;4956972;28;20465;-68
2023/11/01 09:02:17;;;;;;;24.30;6.75;;;;;;;39.32;18.07;98592.88;4957809;28;20027;-67
2023/11/01 09:04:42;;;;;;;17.37;6.23;;;;;;;40.14;17.26;98585.31;4941179;28;20486;-67
2023/11/01 09:07:09;;;;;;;18.30;5.45;;;;;;;40.69;16.36;98590.28;4957169;28;20282;-68
2023/11/01 09:09:35;;;;;;;12.43;5.70;;;;;;;40.63;16.34;98582.53;4957291;28;20034;-68
2023/11/01 09:12:00;;;;;;;13.43;5.47;;;;;;;40.03;16.75;98583.97;4957400;28;20041;-69
2023/11/01 09:14:26;;;;;;;13.52;5.07;;;;;;;39.07;17.51;98576.78;4973385;28;20023;-69
2023/11/01 09:16:51;;;;;;;16.48;5.20;;;;;;;38.03;18.41;98571.06;4974115;28;20038;-68
2023/11/01 09:19:17;;;;;;;17.35;5.40;;;;;;;37.22;19.13;98568.66;4956936;28;20038;-67
2023/11/01 09:21:42;;;;;;;15.30;6.07;;;;;;;36.79;19.50;98569.56;4972971;28;20038;-67
2023/11/01 09:24:08;;;;;;;17.08;6.57;;;;;;;36.60;20.12;98572.25;4940622;28;20054;-67
2023/11/01 09:26:34;;;;;;;19.00;6.72;;;;;;;36.54;20.12;98571.50;4972784;28;20039;-69
2023/11/01 09:28:59;;;;;;;18.75;5.97;;;;;;;36.55;19.71;98564.97;4956881;28;20565;-68
2023/11/01 09:31:25;;;;;;;20.05;6.38;;;;;;;36.49;19.72;98560.69;4972629;28;20162;-67
2023/11/01 09:33:50;;;;;;;10.77;5.25;;;;;;;36.49;19.96;98560.69;4956745;28;20054;-66
2023/11/01 09:36:16;;;;;;;18.00;5.85;;;;;;;36.45;19.76;98559.66;4973282;28;20085;-69
2023/11/01 09:38:42;;;;;;;14.20;5.57;;;;;;;36.40;19.79;98567.88;4956692;28;20022;-67
2023/11/01 09:41:07;;;;;;;18.63;5.57;;;;;;;36.23;19.89;98562.91;4956718;28;20085;-70
2023/11/01 09:43:34;;;;;;;18.23;5.55;;;;;;;36.22;20.01;98562.09;4973105;28;20125;-68
2023/11/01 09:46:00;;;;;;;;;;;;;;;36.11;20.16;98548.94;4957488;28;20523;-69
2023/11/01 09:48:26;;;;;;;17.58;5.50;;;;;;;36.10;19.97;98550.81;4972772;28;19957;-69
2023/11/01 09:50:52;;;;;;;14.50;5.50;;;;;;;36.08;20.11;98542.16;4956199;28;20035;-69
2023/11/01 09:53:18;;;;;;;11.38;5.55;;;;;;;35.98;19.99;98534.16;4956168;28;20049;-69
2023/11/01 09:55:44;;;;;;;11.45;5.30;;;;;;;35.88;20.03;98532.31;4956696;28;20027;-68
2023/11/01 09:58:09;;;;;;;12.15;5.38;;;;;;;35.81;20.28;98535.41;4956547;28;20030;-68
2023/11/01 10:00:35;;;;;;;11.77;5.18;;;;;;;35.78;20.39;98527.81;4956786;28;20041;-68
2023/11/01 10:03:01;;;;;;;15.70;5.28;;;;;;;35.72;20.25;98520.78;4972474;28;20383;-67
2023/11/01 10:05:26;;;;;;;14.07;5.00;;;;;;;35.67;20.26;98518.94;4940720;28;20047;-69
2023/11/01 10:07:51;;;;;;;14.73;4.93;;;;;;;35.62;20.25;98519.00;4972301;28;20030;-69
2023/11/01 10:10:18;;;;;;;13.50;4.88;;;;;;;35.53;20.16;98511.78;4956202;28;20038;-67
2023/11/01 10:12:44;;;;;;;12.30;5.55;;;;;;;35.44;20.62;98520.56;4956390;28;20106;-69
2023/11/01 10:15:22;;;;;;;10.48;4.78;;;;;;;35.35;20.60;98522.25;4956759;28;20035;-68
2023/11/01 10:17:51;;;;;;;13.85;4.43;;;;;;;35.24;20.32;98515.28;4956274;28;20038;-68
2023/11/01 10:20:29;;;;;;;13.98;4.65;;;;;;;35.08;20.77;98514.59;4940614;28;20033;-70
2023/11/01 10:22:55;;;;;;;10.13;4.75;;;;;;;34.94;20.51;98509.00;4939200;28;20043;-68
2023/11/01 10:25:20;;;;;;;12.82;4.63;;;;;;;34.83;20.60;98512.91;4955700;28;20070;-67
2023/11/01 10:27:47;;;;;;;14.50;4.80;;;;;;;34.66;20.93;98505.09;4939514;28;20521;-72
2023/11/01 10:30:13;;;;;;;9.90;4.50;;;;;;;34.53;20.81;98501.13;4957996;28;20474;-68
2023/11/01 10:32:39;;;;;;;11.52;4.75;;;;;;;34.39;20.96;98512.56;4944615;28;20042;-70
2023/11/01 10:35:14;;;;;;;11.75;4.57;;;;;;;34.30;21.28;98511.56;4944076;28;20038;-68
2023/11/01 10:37:40;;;;;;;12.98;4.80;;;;;;;34.19;20.77;98508.06;4960226;28;20088;-70
2023/11/01 10:40:06;;;;;;;15.32;4.95;;;;;;;34.02;21.36;98508.38;4959811;28;20042;-69
2023/11/01 10:42:33;;;;;;;13.18;5.13;;;;;;;33.94;21.67;98508.13;4960156;28;20041;-68
2023/11/01 10:44:59;;;;;;;15.35;4.78;;;;;;;33.80;21.45;98508.72;4959668;28;20055;-70
2023/11/01 10:47:24;;;;;;;9.57;4.05;;;;;;;33.71;21.49;98513.88;4959746;28;20038;-71
2023/11/01 10:49:50;;;;;;;9.50;4.30;;;;;;;33.63;21.51;98513.63;4959633;28;20059;-69
2023/11/01 10:52:15;;;;;;;9.75;4.05;;;;;;;33.41;21.37;98498.50;4959807;28;20410;-68
2023/11/01 10:54:44;;;;;;;10.10;4.00;;;;;;;33.23;21.93;98504.47;4959640;28;20104;-69
2023/11/01 10:57:09;;;;;;;13.55;4.28;;;;;;;32.58;22.57;98515.72;4944379;28;20044;-67
2023/11/01 10:59:50;;;;;;;10.18;4.30;;;;;;;32.16;22.68;98511.25;4975470;28;20035;-68
2023/11/01 11:02:21;;;;;;;8.80;4.00;;;;;;;31.82;23.23;98504.31;4961564;28;20034;-69
2023/11/01 11:05:10;;;;;;;14.02;4.00;;;;;;;31.64;23.78;98504.75;4959666;28;20086;-68
2023/11/01 11:07:48;;;;;;;13.40;4.20;;;;;;;31.53;24.09;98503.88;4975738;28;20030;-68
2023/11/01 11:10:29;;;;;;;8.05;4.10;;;;;;;31.41;23.78;98495.13;4975362;28;20035;-69
2023/11/01 11:13:12;;;;;;;9.70;4.05;;;;;;;31.35;24.26;98496.97;4975406;28;20065;-67
2023/11/01 11:15:47;;;;;;;13.52;4.20;;;;;;;30.89;24.52;98501.97;4975508;28;20115;-68
2023/11/01 11:18:18;;;;;;;12.43;4.18;;;;;;;30.76;24.32;98495.09;4976521;28;20027;-68
2023/11/01 11:20:44;;;;;;;14.48;4.00;;;;;;;30.61;24.67;98493.88;4975417;28;20030;-73